Pagrindinis puslapis
METAR-TAF:

METAR-TAF

Oro uostai :

Hammerfest, Norvegija

platuma: 70-40N, ilguma: 023-40E, Aukštis: 8 m

Dabartinis oras

Ataskaita buvo paskelbta 22 minutes, ne 22:50 UTC
Vėjas 6 kt iš Pietvakarių, svyruoja nuo Pietų/Pietryčių ir Vakarų
Temperatūra 24°C
Drėgmė 65%
Slėgis 1007 hPa
Matomumas 10 km arba daugiau

METAR: ENHF 022250Z AUTO 22006KT 150V280 9999 SCT120/// 24/17 Q1007 RMK WIND 1254FT 19017KT

Laikas: 01:12 (23:12 UTC)

Prognozė

Ataskaita buvo paskelbta 18 valandos ir 12 minutes, ne 05:00 UTC
Prognozė galioja nuo 02 metu 05 UTC su 02 metu 12 UTC
Vėjas 9 kt iš Pietvakarių
Matomumas 10 km arba daugiau
nėra debesų žemiau 1500 m ir nėra kamuolinių lietaus debesų
Laikinai
nuo 02 metu 09 UTC su 02 metu 12 UTC
Mažai debesys ne aukštis 3500 ft, Liūtiniai kamuoliniai debesys.
Tikimybė 30%
nuo 02 metu 10 UTC su 02 metu 12 UTC
perkūnija

TAF: ENHF 020500Z 0205/0212 22009KT CAVOK TEMPO 0209/0212 FEW035CB PROB30 0210/0212 TS

Orai ataskaitas ir orų prognozės (METAR, TAF).

turimą stotys yra geltonos ir raudonos taškus žemėlapyje.

Perkelti pele per norėdami pamatyti stoties vardą.

Tada spustelėkite, norėdami matyti oro stebėjimo ir prognozės.

Norėdami pakeisti žemėlapį: spustelėkite ant žalios mygtukų su juodo kryžiaus žemyn,; žalią mygtuką su brūkšneliu, jei norite nutolinti; arba žalių rodyklių gretimoms žemėlapius.


METAR-TAF: